createdAt,value
2023-02-22T00:02:10.263Z,74.57
2023-02-22T00:04:47.315Z,74.61
2023-02-22T00:07:24.747Z,75.15
2023-02-22T00:10:02.098Z,74.83
2023-02-22T00:12:38.695Z,75.23
2023-02-22T00:15:16.048Z,75.21
2023-02-22T00:17:52.944Z,75.85
2023-02-22T00:20:29.605Z,75.30
2023-02-22T00:23:09.884Z,75.42
2023-02-22T00:25:47.484Z,75.60
2023-02-22T00:28:27.342Z,75.57
2023-02-22T00:31:05.847Z,75.76
2023-02-22T00:33:44.428Z,75.40
2023-02-22T00:36:15.280Z,75.19
2023-02-22T00:38:51.147Z,75.24
2023-02-22T00:41:28.942Z,75.32
2023-02-22T00:44:05.587Z,75.03
2023-02-22T00:46:35.594Z,74.81
2023-02-22T00:49:13.316Z,74.54
2023-02-22T00:51:50.216Z,74.92
2023-02-22T00:54:27.521Z,74.87
2023-02-22T00:57:05.122Z,74.75
2023-02-22T00:59:35.295Z,74.85
2023-02-22T01:02:11.949Z,74.67
2023-02-22T01:04:42.491Z,74.98
2023-02-22T01:07:21.900Z,75.09
2023-02-22T01:09:58.678Z,75.25
2023-02-22T01:12:36.119Z,75.25
2023-02-22T01:15:15.160Z,75.39
2023-02-22T01:17:53.761Z,75.50
2023-02-22T01:20:31.170Z,75.52
2023-02-22T01:23:10.848Z,75.27
2023-02-22T01:25:48.929Z,75.25
2023-02-22T01:28:19.488Z,75.34
2023-02-22T01:30:53.208Z,75.35
2023-02-22T01:33:29.954Z,75.45
2023-02-22T01:36:11.907Z,75.32
2023-02-22T01:38:48.942Z,75.03
2023-02-22T01:41:26.247Z,74.73
2023-02-22T01:44:18.048Z,74.82
2023-02-22T01:46:53.745Z,74.82
2023-02-22T01:49:45.754Z,74.77
2023-02-22T01:52:21.607Z,74.80
2023-02-22T01:55:03.668Z,74.60
2023-02-22T01:57:38.702Z,74.59
2023-02-22T02:00:21.557Z,74.54
2023-02-22T02:03:03.639Z,74.55
2023-02-22T02:05:35.731Z,74.48
2023-02-22T02:09:01.858Z,74.65
2023-02-22T02:11:35.473Z,74.61
2023-02-22T02:14:14.136Z,74.44
2023-02-22T02:16:54.008Z,74.56
2023-02-22T02:19:38.439Z,74.72
2023-02-22T02:22:38.864Z,74.85
2023-02-22T02:26:04.290Z,74.83
2023-02-22T02:29:20.681Z,75.18
2023-02-22T02:32:28.597Z,74.95
2023-02-22T02:36:02.489Z,75.00
2023-02-22T02:39:16.614Z,74.91
2023-02-22T02:41:58.853Z,74.67
2023-02-22T02:45:03.649Z,74.84
2023-02-22T02:47:46.132Z,74.84
2023-02-22T02:50:29.205Z,74.98
2023-02-22T02:53:08.696Z,75.13
2023-02-22T02:55:45.967Z,75.52
2023-02-22T02:58:26.784Z,75.24
2023-02-22T03:01:06.673Z,75.39
2023-02-22T03:04:21.151Z,75.54
2023-02-22T03:07:25.493Z,76.03
2023-02-22T03:10:19.905Z,75.64
2023-02-22T03:13:23.375Z,75.64
2023-02-22T03:16:27.809Z,75.67
2023-02-22T03:19:29.249Z,75.42
2023-02-22T03:22:33.114Z,75.84
2023-02-22T03:25:52.324Z,75.87
2023-02-22T03:28:31.814Z,75.92
2023-02-22T03:31:32.821Z,76.09
2023-02-22T03:34:24.720Z,76.00
2023-02-22T03:37:17.017Z,76.79
2023-02-22T03:39:56.531Z,76.25
2023-02-22T03:42:41.292Z,76.36
2023-02-22T03:45:21.636Z,76.39
2023-02-22T03:48:18.069Z,76.35
2023-02-22T03:50:53.253Z,76.65
2023-02-22T03:53:30.738Z,76.46
2023-02-22T03:56:12.466Z,76.49
2023-02-22T03:58:50.986Z,76.49
2023-02-22T04:01:24.311Z,76.42
2023-02-22T04:04:01.744Z,76.68
2023-02-22T04:06:38.465Z,77.63
2023-02-22T04:09:15.935Z,77.69
2023-02-22T04:11:52.736Z,77.26
2023-02-22T04:14:29.702Z,77.00
2023-02-22T04:17:07.772Z,77.01
2023-02-22T04:19:46.017Z,77.15
2023-02-22T04:22:16.139Z,77.26
2023-02-22T04:24:49.405Z,76.76
2023-02-22T04:27:27.236Z,76.07
2023-02-22T04:30:03.969Z,75.77
2023-02-22T04:32:41.234Z,75.54
2023-02-22T04:35:18.004Z,74.66
2023-02-22T04:37:54.768Z,75.05
2023-02-22T04:40:32.210Z,74.78
2023-02-22T04:43:10.681Z,75.01
2023-02-22T04:45:48.183Z,74.53
2023-02-22T04:48:18.569Z,74.89
2023-02-22T04:50:54.253Z,74.64
2023-02-22T04:53:28.846Z,74.75
2023-02-22T04:56:07.564Z,74.92
2023-02-22T04:58:45.166Z,74.86
2023-02-22T05:01:23.864Z,74.21
2023-02-22T05:04:00.745Z,74.66
2023-02-22T05:06:37.411Z,74.24
2023-02-22T05:09:07.654Z,74.40
2023-02-22T05:11:38.175Z,74.10
2023-02-22T05:14:15.141Z,74.50
2023-02-22T05:16:52.615Z,74.15
2023-02-22T05:19:30.601Z,73.89
2023-02-22T05:22:08.264Z,73.88
2023-02-22T05:24:45.458Z,74.36
2023-02-22T05:27:22.948Z,74.03
2023-02-22T05:30:00.651Z,74.01
2023-02-22T05:32:38.728Z,74.17
2023-02-22T05:35:16.965Z,74.34
2023-02-22T05:37:54.734Z,73.03
2023-02-22T05:40:31.940Z,73.66
2023-02-22T05:43:11.197Z,73.34
2023-02-22T05:45:41.679Z,72.60
2023-02-22T05:48:16.951Z,72.80
2023-02-22T05:50:53.886Z,72.01
2023-02-22T05:53:32.107Z,71.52
2023-02-22T05:56:11.109Z,72.48
2023-02-22T05:58:48.332Z,72.42
2023-02-22T06:01:26.207Z,72.23
2023-02-22T06:04:03.823Z,72.12
2023-02-22T06:06:40.851Z,72.42
2023-02-22T06:09:19.238Z,72.29
2023-02-22T06:11:57.107Z,72.40
2023-02-22T06:14:34.953Z,72.14
2023-02-22T06:17:13.745Z,72.01
2023-02-22T06:19:53.166Z,72.45
2023-02-22T06:22:32.174Z,71.95
2023-02-22T06:25:15.435Z,71.49
2023-02-22T06:27:53.804Z,71.66
2023-02-22T06:30:30.753Z,71.64
2023-02-22T06:33:01.446Z,71.90
2023-02-22T06:35:38.126Z,71.89
2023-02-22T06:38:25.351Z,71.72
2023-02-22T06:40:58.762Z,71.61
2023-02-22T06:43:37.846Z,71.07
2023-02-22T06:46:19.736Z,71.59
2023-02-22T06:49:00.144Z,71.24
2023-02-22T06:51:41.395Z,71.28
2023-02-22T06:54:19.479Z,71.06
2023-02-22T06:56:50.308Z,70.83
2023-02-22T06:59:28.950Z,70.51
2023-02-22T07:02:07.519Z,70.30
2023-02-22T07:04:46.990Z,70.08
2023-02-22T07:07:26.369Z,69.98
2023-02-22T07:10:04.418Z,69.99
2023-02-22T07:12:42.245Z,69.60
2023-02-22T07:15:22.189Z,69.98
2023-02-22T07:17:59.771Z,68.98
2023-02-22T07:20:37.998Z,69.28
2023-02-22T07:23:18.776Z,69.08
2023-02-22T07:25:56.042Z,69.03
2023-02-22T07:28:34.092Z,68.92
2023-02-22T07:31:05.631Z,68.46
2023-02-22T07:33:39.452Z,68.29
2023-02-22T07:36:18.344Z,67.97
2023-02-22T07:38:56.636Z,67.26
2023-02-22T07:41:34.442Z,67.17
2023-02-22T07:44:05.423Z,66.75
2023-02-22T07:46:43.767Z,65.92
2023-02-22T07:49:21.750Z,66.67
2023-02-22T07:51:52.370Z,67.06
2023-02-22T07:54:23.969Z,65.68
2023-02-22T07:57:00.582Z,64.65
2023-02-22T07:59:38.981Z,65.01
2023-02-22T08:02:19.932Z,64.80
2023-02-22T08:04:58.313Z,64.32
2023-02-22T08:07:35.954Z,63.76
2023-02-22T08:10:15.900Z,62.77
2023-02-22T08:12:55.287Z,62.51
2023-02-22T08:15:36.726Z,62.44
2023-02-22T08:18:16.733Z,62.64
2023-02-22T08:20:56.871Z,62.15
2023-02-22T08:23:34.349Z,62.24
2023-02-22T08:26:15.997Z,62.27
2023-02-22T08:28:47.288Z,61.82
2023-02-22T08:31:23.999Z,61.81
2023-02-22T08:34:02.532Z,61.42
2023-02-22T08:36:43.256Z,61.40
2023-02-22T08:39:21.101Z,61.54
2023-02-22T08:41:58.801Z,61.60
2023-02-22T08:44:36.655Z,61.10
2023-02-22T08:47:15.878Z,61.26
2023-02-22T08:49:46.809Z,62.39
2023-02-22T08:52:23.037Z,61.91
2023-02-22T08:55:01.730Z,61.40
2023-02-22T08:57:32.822Z,61.72
2023-02-22T09:00:07.775Z,61.39
2023-02-22T09:02:48.318Z,60.91
2023-02-22T09:05:26.845Z,61.41
2023-02-22T09:08:05.079Z,61.78
2023-02-22T09:10:45.590Z,62.05
2023-02-22T09:13:24.116Z,61.48
2023-02-22T09:16:02.419Z,61.05
2023-02-22T09:18:44.312Z,60.85
2023-02-22T09:21:24.833Z,60.61
2023-02-22T09:24:10.242Z,60.46
2023-02-22T09:27:01.132Z,60.28
2023-02-22T09:29:40.241Z,60.96
2023-02-22T09:32:20.053Z,60.21
2023-02-22T09:34:58.406Z,60.17
2023-02-22T09:37:36.648Z,60.42
2023-02-22T09:40:26.333Z,60.34
2023-02-22T09:43:54.489Z,60.54
2023-02-22T09:46:46.093Z,61.36
2023-02-22T09:49:29.965Z,60.61
2023-02-22T09:52:24.864Z,60.99
2023-02-22T09:55:30.734Z,61.30
2023-02-22T09:58:25.288Z,60.82
2023-02-22T10:01:29.783Z,61.05
2023-02-22T10:04:35.772Z,61.36
2023-02-22T10:07:33.174Z,60.51
2023-02-22T10:10:23.433Z,61.50
2023-02-22T10:13:18.146Z,62.88
2023-02-22T10:16:21.191Z,63.02
2023-02-22T10:19:29.357Z,63.37
2023-02-22T10:22:25.108Z,63.32
2023-02-22T10:25:18.951Z,63.25
2023-02-22T10:28:19.595Z,63.10
2023-02-22T10:31:05.256Z,62.66
2023-02-22T10:33:56.336Z,62.56
2023-02-22T10:36:29.251Z,61.70
2023-02-22T10:39:36.592Z,61.68
2023-02-22T10:42:16.374Z,61.56
2023-02-22T10:44:56.022Z,60.64
2023-02-22T10:47:35.949Z,60.48
2023-02-22T10:50:17.559Z,60.38
2023-02-22T10:52:57.688Z,60.11
2023-02-22T10:55:38.410Z,60.78
2023-02-22T10:58:18.534Z,60.08
2023-02-22T11:00:57.008Z,60.26
2023-02-22T11:03:35.799Z,60.38
2023-02-22T11:06:26.237Z,60.04
2023-02-22T11:09:24.505Z,59.99
2023-02-22T11:12:29.417Z,59.82
2023-02-22T11:15:25.869Z,59.37
2023-02-22T11:18:04.862Z,58.94
2023-02-22T11:20:44.354Z,58.03
2023-02-22T11:23:25.914Z,59.33
2023-02-22T11:26:21.240Z,58.86
2023-02-22T11:29:02.452Z,58.16
2023-02-22T11:31:47.020Z,58.57
2023-02-22T11:34:40.733Z,58.46
2023-02-22T11:37:39.341Z,57.63
2023-02-22T11:40:28.136Z,56.92
2023-02-22T11:43:20.736Z,56.31
2023-02-22T11:46:20.620Z,56.56
2023-02-22T11:49:13.662Z,56.13
2023-02-22T11:52:19.401Z,56.12
2023-02-22T11:55:36.486Z,55.17
2023-02-22T11:58:52.640Z,53.74
2023-02-22T12:02:01.484Z,54.45
2023-02-22T12:05:08.790Z,54.00
2023-02-22T12:08:19.225Z,54.64
2023-02-22T12:11:13.673Z,54.37
2023-02-22T12:14:09.906Z,53.82
2023-02-22T12:17:09.077Z,54.01
2023-02-22T12:19:56.430Z,53.87
2023-02-22T12:22:43.101Z,53.93
2023-02-22T12:25:39.495Z,53.05
2023-02-22T12:28:35.606Z,53.43
2023-02-22T12:31:38.172Z,53.46
2023-02-22T12:34:28.681Z,53.96
2023-02-22T12:37:11.730Z,54.40
2023-02-22T12:40:19.051Z,53.87
2023-02-22T12:43:42.803Z,53.57
2023-02-22T12:46:55.332Z,54.00
2023-02-22T12:49:47.775Z,53.85
2023-02-22T12:52:54.535Z,53.21
2023-02-22T12:55:39.506Z,53.73
2023-02-22T12:58:31.705Z,53.50
2023-02-22T13:01:31.972Z,53.07
2023-02-22T13:04:20.932Z,53.20
2023-02-22T13:07:17.110Z,53.30
2023-02-22T13:10:24.224Z,53.65
2023-02-22T13:13:11.706Z,53.67
2023-02-22T13:16:01.675Z,54.11
2023-02-22T13:19:08.341Z,54.43
2023-02-22T13:21:55.583Z,53.87
2023-02-22T13:24:48.861Z,54.16
2023-02-22T13:27:41.072Z,53.94
2023-02-22T13:30:43.908Z,53.74
2023-02-22T13:33:50.972Z,54.30
2023-02-22T13:37:10.605Z,54.08
2023-02-22T13:40:20.760Z,54.27
2023-02-22T13:43:51.223Z,54.39
2023-02-22T13:46:35.382Z,54.62
2023-02-22T13:49:43.646Z,54.59
2023-02-22T13:52:29.731Z,53.93
2023-02-22T13:55:32.852Z,54.22
2023-02-22T13:58:17.660Z,54.34
2023-02-22T14:00:57.640Z,54.74
2023-02-22T14:03:41.370Z,54.87
2023-02-22T14:06:42.406Z,54.72
2023-02-22T14:10:10.018Z,55.00
2023-02-22T14:13:05.647Z,54.69
2023-02-22T14:16:11.792Z,54.82
2023-02-22T14:18:52.151Z,54.50
2023-02-22T14:21:30.964Z,54.50
2023-02-22T14:24:19.216Z,54.46
2023-02-22T14:27:22.741Z,54.44
2023-02-22T14:30:01.270Z,54.37
2023-02-22T14:32:36.768Z,54.48
2023-02-22T14:35:38.476Z,54.66
2023-02-22T14:38:23.745Z,54.66
2023-02-22T14:41:03.817Z,54.64
2023-02-22T14:43:43.535Z,54.82
2023-02-22T14:46:25.622Z,54.68
2023-02-22T14:49:10.531Z,54.71
2023-02-22T14:51:57.285Z,54.52
2023-02-22T14:54:59.316Z,54.86
2023-02-22T14:58:12.961Z,54.91
2023-02-22T15:00:57.485Z,54.28
2023-02-22T15:03:44.312Z,54.38
2023-02-22T15:06:29.450Z,54.48
2023-02-22T15:09:30.232Z,55.06
2023-02-22T15:12:13.976Z,55.17
2023-02-22T15:14:52.664Z,55.50
2023-02-22T15:17:31.396Z,55.52
2023-02-22T15:20:17.004Z,55.54
2023-02-22T15:23:00.322Z,54.83
2023-02-22T15:25:40.023Z,54.96
2023-02-22T15:28:20.121Z,55.10
2023-02-22T15:31:51.644Z,54.57
2023-02-22T15:34:33.914Z,54.69
2023-02-22T15:37:37.212Z,54.57
2023-02-22T15:40:23.137Z,54.55
2023-02-22T15:43:10.017Z,54.56
2023-02-22T15:45:51.588Z,54.80
2023-02-22T15:48:32.090Z,54.93
2023-02-22T15:51:15.756Z,55.10
2023-02-22T15:53:54.487Z,55.36
2023-02-22T15:56:35.798Z,55.54
2023-02-22T15:59:19.604Z,55.07
2023-02-22T16:01:56.752Z,55.11
2023-02-22T16:04:34.674Z,54.84
2023-02-22T16:07:21.663Z,55.10
2023-02-22T16:09:55.021Z,55.23
2023-02-22T16:12:36.522Z,55.03
2023-02-22T16:15:19.149Z,54.86
2023-02-22T16:18:02.095Z,54.87
2023-02-22T16:20:36.752Z,54.59
2023-02-22T16:23:34.172Z,54.96
2023-02-22T16:26:33.050Z,54.84
2023-02-22T16:29:26.996Z,54.92
2023-02-22T16:31:57.412Z,55.19
2023-02-22T16:34:29.269Z,55.29
2023-02-22T16:37:23.593Z,55.38
2023-02-22T16:39:58.275Z,54.84
2023-02-22T16:42:35.656Z,55.11
2023-02-22T16:45:16.780Z,55.67
2023-02-22T16:47:55.352Z,55.25
2023-02-22T16:50:34.453Z,54.91
2023-02-22T16:53:13.971Z,55.12
2023-02-22T16:55:59.518Z,55.36
2023-02-22T16:58:41.418Z,55.11
2023-02-22T17:01:17.576Z,55.15
2023-02-22T17:03:55.525Z,55.64
2023-02-22T17:06:33.219Z,55.15
2023-02-22T17:09:11.375Z,55.00
2023-02-22T17:11:50.814Z,55.42
2023-02-22T17:14:32.437Z,55.50
2023-02-22T17:17:04.591Z,55.23
2023-02-22T17:19:37.762Z,55.39
2023-02-22T17:22:27.062Z,55.63
2023-02-22T17:24:57.714Z,55.38
2023-02-22T17:27:36.446Z,54.97
2023-02-22T17:30:17.204Z,55.22
2023-02-22T17:32:57.558Z,55.60
2023-02-22T17:35:37.354Z,54.84
2023-02-22T17:38:21.468Z,55.17
2023-02-22T17:40:58.006Z,55.33
2023-02-22T17:43:30.072Z,55.44
2023-02-22T17:46:14.196Z,55.57
2023-02-22T17:48:44.571Z,55.17
2023-02-22T17:51:18.396Z,55.30
2023-02-22T17:53:56.401Z,54.77
2023-02-22T17:56:34.862Z,55.13
2023-02-22T17:59:12.852Z,55.55
2023-02-22T18:01:53.550Z,55.50
2023-02-22T18:04:35.406Z,55.41
2023-02-22T18:07:20.333Z,55.46
2023-02-22T18:09:57.672Z,55.23
2023-02-22T18:12:34.828Z,55.59
2023-02-22T18:15:18.020Z,55.94
2023-02-22T18:17:57.619Z,55.73
2023-02-22T18:20:40.626Z,55.77
2023-02-22T18:23:21.108Z,55.82
2023-02-22T18:26:10.102Z,56.01
2023-02-22T18:28:43.861Z,56.13
2023-02-22T18:31:20.307Z,55.93
2023-02-22T18:33:58.464Z,56.01
2023-02-22T18:36:36.804Z,55.84
2023-02-22T18:39:12.700Z,55.93
2023-02-22T18:41:50.936Z,56.45
2023-02-22T18:44:28.971Z,56.56
2023-02-22T18:46:59.902Z,56.30
2023-02-22T18:49:41.757Z,56.56
2023-02-22T18:52:20.075Z,56.78
2023-02-22T18:54:58.384Z,56.53
2023-02-22T18:57:36.338Z,56.55
2023-02-22T19:00:14.822Z,55.79
2023-02-22T19:02:46.177Z,56.25
2023-02-22T19:05:20.282Z,55.97
2023-02-22T19:07:59.376Z,56.15
2023-02-22T19:10:37.206Z,56.21
2023-02-22T19:13:17.017Z,56.30
2023-02-22T19:15:55.592Z,56.39
2023-02-22T19:18:34.313Z,56.33
2023-02-22T19:21:14.964Z,56.05
2023-02-22T19:23:53.672Z,55.77
2023-02-22T19:26:29.492Z,55.43
2023-02-22T19:29:08.844Z,55.63
2023-02-22T19:31:51.605Z,55.71
2023-02-22T19:34:31.881Z,55.89
2023-02-22T19:37:05.791Z,55.84
2023-02-22T19:39:43.578Z,56.05
2023-02-22T19:42:21.278Z,56.02
2023-02-22T19:44:59.270Z,55.78
2023-02-22T19:47:36.894Z,56.01
2023-02-22T19:50:15.100Z,55.28
2023-02-22T19:52:45.961Z,55.62
2023-02-22T19:55:21.888Z,55.71
2023-02-22T19:57:59.193Z,55.07
2023-02-22T20:00:36.457Z,54.63
2023-02-22T20:03:09.663Z,54.65
2023-02-22T20:05:47.350Z,54.80
2023-02-22T20:08:26.742Z,54.56
2023-02-22T20:11:00.637Z,55.17
2023-02-22T20:13:31.882Z,55.04
2023-02-22T20:16:03.519Z,55.41
2023-02-22T20:18:41.136Z,55.21
2023-02-22T20:21:21.184Z,55.33
2023-02-22T20:23:57.303Z,55.33
2023-02-22T20:26:35.887Z,54.58
2023-02-22T20:29:07.999Z,54.35
2023-02-22T20:31:41.685Z,54.96
2023-02-22T20:34:12.381Z,54.52
2023-02-22T20:36:43.207Z,54.24
2023-02-22T20:39:21.146Z,53.61
2023-02-22T20:42:03.286Z,53.88
2023-02-22T20:44:40.891Z,53.24
2023-02-22T20:47:18.409Z,53.64
2023-02-22T20:49:56.116Z,53.77
2023-02-22T20:52:34.157Z,53.84
2023-02-22T20:55:04.754Z,53.66
2023-02-22T20:57:34.983Z,54.07
2023-02-22T21:00:11.013Z,54.39
2023-02-22T21:02:47.423Z,53.93
2023-02-22T21:05:23.398Z,53.94
2023-02-22T21:08:01.389Z,53.57
2023-02-22T21:10:47.510Z,53.26
2023-02-22T21:13:23.764Z,53.61
2023-02-22T21:16:01.311Z,53.85
2023-02-22T21:18:39.710Z,54.11
2023-02-22T21:21:17.952Z,53.54
2023-02-22T21:23:58.105Z,53.64
2023-02-22T21:26:37.522Z,53.84
2023-02-22T21:29:08.029Z,53.51
2023-02-22T21:31:46.715Z,53.87
2023-02-22T21:34:26.183Z,54.11
2023-02-22T21:36:57.365Z,53.91
2023-02-22T21:39:30.124Z,53.93
2023-02-22T21:42:07.653Z,53.52
2023-02-22T21:44:44.546Z,53.34
2023-02-22T21:47:21.032Z,53.28
2023-02-22T21:49:58.755Z,53.20
2023-02-22T21:52:37.798Z,52.97
2023-02-22T21:55:11.853Z,53.58
2023-02-22T21:57:44.392Z,53.58
2023-02-22T22:00:30.188Z,53.66
2023-02-22T22:03:00.259Z,53.34
2023-02-22T22:05:35.069Z,53.56
2023-02-22T22:08:08.352Z,53.13
2023-02-22T22:10:44.714Z,53.33
2023-02-22T22:13:22.550Z,53.03
2023-02-22T22:15:53.226Z,53.26
2023-02-22T22:18:32.905Z,53.35
2023-02-22T22:21:17.956Z,53.37
2023-02-22T22:23:56.447Z,53.33
2023-02-22T22:26:34.491Z,53.14
2023-02-22T22:29:14.836Z,53.53
2023-02-22T22:31:56.143Z,53.53
2023-02-22T22:34:35.274Z,53.50
2023-02-22T22:37:13.510Z,53.15
2023-02-22T22:39:50.662Z,53.27
2023-02-22T22:42:29.058Z,52.79
2023-02-22T22:45:10.816Z,52.95
2023-02-22T22:47:46.465Z,53.02
2023-02-22T22:50:27.773Z,52.81
2023-02-22T22:53:07.675Z,52.83
2023-02-22T22:55:47.826Z,52.68
2023-02-22T22:58:25.256Z,52.78
2023-02-22T23:01:07.110Z,53.37
2023-02-22T23:03:53.041Z,53.26
2023-02-22T23:06:40.443Z,53.06
2023-02-22T23:09:28.564Z,52.90
2023-02-22T23:12:18.344Z,52.85
2023-02-22T23:14:48.415Z,52.65
2023-02-22T23:17:31.699Z,52.95
2023-02-22T23:20:12.637Z,52.83
2023-02-22T23:22:48.022Z,52.75
2023-02-22T23:25:24.389Z,52.94
2023-02-22T23:27:55.614Z,53.47
2023-02-22T23:30:52.320Z,53.41
2023-02-22T23:33:31.685Z,53.29
2023-02-22T23:36:04.963Z,53.61
2023-02-22T23:38:44.265Z,53.15
2023-02-22T23:41:25.501Z,53.53
2023-02-22T23:44:03.265Z,53.20
2023-02-22T23:46:45.202Z,53.08
2023-02-22T23:49:23.001Z,52.94
2023-02-22T23:51:53.045Z,52.99
2023-02-22T23:54:26.314Z,53.09
2023-02-22T23:57:02.724Z,53.07
2023-02-22T23:59:35.348Z,53.19
